ADDS METAR Data INFO
IDs: Format: Raw Decoded Include TAF

Data at: 1917 UTC 19 Jul 2018

KHZD 191855Z AUTO 16005KT 10SM SCT040 SCT048 SCT055 32/23 A2992 RMK A01
KHZD 191835Z AUTO VRB04KT 10SM FEW039 FEW050 32/23 A2992 RMK A01
KHZD 191815Z AUTO 00000KT 10SM FEW039 FEW050 32/23 A2993 RMK A01
KHZD 191755Z AUTO 19007KT 10SM CLR 32/23 A2994 RMK A01
KHZD 191735Z AUTO 20003KT 10SM CLR 31/22 A2994 RMK A01
KHZD 191715Z AUTO VRB04KT 10SM CLR 31/22 A2994 RMK A01
KHZD 191655Z AUTO VRB05G10KT 10SM SCT080 31/22 A2994 RMK A01
KHZD 191635Z AUTO VRB04KT 10SM BKN085 30/22 A2994 RMK A01
KHZD 191615Z AUTO 14005KT 10SM SCT085 30/22 A2995 RMK A01
KHZD 191555Z AUTO 19006KT 10SM SCT090 29/21 A2996 RMK A01
KHZD 191535Z AUTO 17007KT 10SM FEW085 29/21 A2995 RMK A01
KHZD 191515Z AUTO 12005G10KT 10SM CLR 28/21 A2995 RMK A01
KHZD 191455Z AUTO 12004KT 10SM CLR 28/21 A2996 RMK A01
KHZD 191435Z AUTO VRB05KT 10SM CLR 27/21 A2997 RMK A01
KHZD 191415Z AUTO 14005KT 10SM CLR 27/21 A2997 RMK A01
KHZD 191355Z AUTO 13006KT 10SM CLR 26/21 A2997 RMK A01
KHZD 191335Z AUTO VRB03KT 10SM CLR 25/20 A2997 RMK A01
KHZD 191315Z AUTO 00000KT 10SM CLR 24/20 A2997 RMK A01
KHZD 191255Z AUTO VRB03KT 10SM FEW060 FEW100 24/20 A2996 RMK A01
KHZD 191235Z AUTO 00000KT 10SM BKN060 BKN080 23/19 A2997 RMK A01
KHZD 191215Z AUTO 00000KT 10SM FEW060 BKN080 22/19 A2996 RMK A01
KHZD 191155Z AUTO 00000KT BKN060 BKN090 22/19 A2996 RMK A01
KHZD 191135Z AUTO 09003KT 10SM FEW060 OVC090 22/19 A2996 RMK A01
KHZD 191115Z AUTO 06003KT 10SM BKN085 22/19 A2995 RMK A01
KHZD 191055Z AUTO 06004KT 10SM SCT095 21/19 A2995 RMK A01
KHZD 191035Z AUTO 07003KT 10SM SCT060 BKN100 22/19 A2995 RMK A01
KHZD 191015Z AUTO 00000KT 10SM BKN060 OVC100 22/19 A2995 RMK A01
KHZD 190955Z AUTO 09003KT 10SM OVC055 22/19 A2994 RMK A01
KHZD 190935Z AUTO 07005KT 10SM BKN055 OVC100 22/19 A2994 RMK A01
KHZD 190915Z AUTO 06003KT 10SM BKN095 21/19 A2994 RMK A01
KHZD 190855Z AUTO 06005KT 10SM BKN090 21/19 A2994 RMK A01
KHZD 190835Z AUTO 05004KT 10SM CLR 22/19 A2994 RMK A01
KHZD 190815Z AUTO 04004KT 10SM CLR 21/19 A2994 RMK A01
KHZD 190755Z AUTO 07003KT 10SM CLR 22/20 A2994 RMK A01
KHZD 190735Z AUTO 06003KT 10SM FEW090 22/20 A2995 RMK A01
KHZD 190715Z AUTO 08004KT 10SM CLR 22/20 A2995 RMK A01
KHZD 190655Z AUTO 07003KT 10SM FEW041 22/20 A2995 RMK A01
KHZD 190635Z AUTO 08004KT 10SM SCT040 22/20 A2995 RMK A01
KHZD 190615Z AUTO 07004KT 10SM SCT042 22/21 A2996 RMK A01
KHZD 190555Z AUTO 06004KT 10SM FEW041 22/21 A2996 RMK A01
KHZD 190535Z AUTO 00000KT 10SM CLR 23/21 A2997 RMK A01
KHZD 190515Z AUTO 07003KT 10SM CLR 23/21 A2997 RMK A01
KHZD 190455Z AUTO 06004KT 10SM CLR 23/21 A2997 RMK A01
KHZD 190435Z AUTO 05004KT 10SM CLR 23/21 A2997 RMK A01
KHZD 190415Z AUTO 05003KT 10SM CLR 23/21 A2997 RMK A01
KHZD 190355Z AUTO 05004KT 10SM CLR 24/21 A2997 RMK A01
KHZD 190335Z AUTO 00000KT 10SM CLR 23/21 A2997 RMK A01
KHZD 190315Z AUTO 05003KT 10SM CLR 24/21 A2997 RMK A01
KHZD 190255Z AUTO 07004KT 10SM CLR 24/21 A2997 RMK A01
KHZD 190235Z AUTO 00000KT 10SM CLR 25/21 A2996 RMK A01
KHZD 190215Z AUTO 00000KT CLR 25/21 A2996 RMK A01
KHZD 190155Z AUTO 06003KT 10SM CLR 25/21 A2995 RMK A01
KHZD 190135Z AUTO 00000KT 10SM CLR 26/21 A2995 RMK A01
KHZD 190115Z AUTO 03003KT 10SM CLR 26/21 A2994 RMK A01
KHZD 190055Z AUTO 04005KT 10SM CLR 27/21 A2994 RMK A01
KHZD 190035Z AUTO 04004KT 10SM CLR 28/21 A2994 RMK A01
KHZD 190015Z AUTO 04006KT 10SM CLR 29/21 A2993 RMK A01
KHZD 182355Z AUTO 05006KT 10SM CLR 29/20 A2994 RMK A01
KHZD 182335Z AUTO 05005KT 10SM CLR 30/20 A2994 RMK A01
KHZD 182315Z AUTO 06006KT 10SM CLR 30/20 A2994 RMK A01
KHZD 182255Z AUTO 07005KT 10SM CLR 30/20 A2995 RMK A01
KHZD 182235Z AUTO 07007KT 10SM CLR 30/20 A2994 RMK A01
KHZD 182215Z AUTO 05005G11KT 10SM CLR 29/21 A2995 RMK A01
KHZD 182155Z AUTO 03008KT 10SM CLR 31/20 A2996 RMK A01
KHZD 182135Z AUTO 04007KT 10SM CLR 30/20 A2996 RMK A01
KHZD 182115Z AUTO 04008KT 10SM CLR 30/20 A2996 RMK A01
KHZD 182055Z AUTO 04006KT 10SM CLR 31/20 A2996 RMK A01
KHZD 182035Z AUTO 04007KT 10SM CLR 31/20 A2997 RMK A01
KHZD 182015Z AUTO 06006KT 10SM CLR 31/20 A2996 RMK A01
KHZD 181955Z AUTO 04007KT 10SM CLR 31/19 A2997 RMK A01
KHZD 181935Z AUTO 06006G12KT 10SM CLR 31/20 A2998 RMK A01
KHZD 181915Z AUTO 05007KT 10SM CLR 32/18 A2998 RMK A01
KHZD 181855Z AUTO VRB05KT 10SM CLR 31/18 A2999 RMK A01
KHZD 181835Z AUTO 05006KT 10SM CLR 31/19 A3000 RMK A01
KHZD 181815Z AUTO VRB04KT 10SM CLR 31/19 A3000 RMK A01
KHZD 181755Z AUTO 05007KT 10SM CLR 31/19 A3001 RMK A01
KHZD 181735Z AUTO 07004KT 10SM CLR 31/19 A3001 RMK A01
KHZD 181715Z AUTO 00000G10KT 10SM CLR 30/19 A3001 RMK A01
KHZD 181655Z AUTO 08005KT 10SM CLR 30/19 A3002 RMK A01
KHZD 181635Z AUTO 04004KT 10SM CLR 30/20 A3002 RMK A01
KHZD 181615Z AUTO 06006KT 10SM CLR 30/20 A3003 RMK A01
KHZD 181555Z AUTO 10005KT 10SM CLR 29/19 A3003 RMK A01
KHZD 181535Z AUTO 05006KT 10SM CLR 29/20 A3003 RMK A01
KHZD 181515Z AUTO 07007KT 10SM CLR 29/19 A3003 RMK A01
KHZD 181455Z AUTO 09006KT 10SM CLR 28/20 A3004 RMK A01
KHZD 181435Z AUTO 07007KT 10SM CLR 28/20 A3004 RMK A01
KHZD 181415Z AUTO 07006KT 10SM CLR 27/20 A3004 RMK A01
KHZD 181355Z AUTO 08007KT 10SM CLR 27/20 A3003 RMK A01
KHZD 181335Z AUTO 07006KT 10SM CLR 27/21 A3004 RMK A01
KHZD 181315Z AUTO 07005KT 10SM CLR 26/21 A3003 RMK A01
KHZD 181255Z AUTO 07007KT 10SM CLR 26/21 A3002 RMK A01
KHZD 181235Z AUTO 07005KT 10SM CLR 25/22 A3003 RMK A01
KHZD 181215Z AUTO 00000KT 10SM CLR 24/22 A3002 RMK A01
KHZD 181155Z AUTO 00000KT 10SM CLR 23/22 A3002 RMK A01
KHZD 181135Z AUTO 00000KT 10SM CLR 23/21 A3001 RMK A01
KHZD 181115Z AUTO 00000KT 10SM CLR 23/21 A3001 RMK A01
KHZD 181055Z AUTO 05005KT 10SM CLR 23/21 A3000 RMK A01
KHZD 181035Z AUTO 04005KT 10SM CLR 24/21 A2999 RMK A01
KHZD 181015Z AUTO 05004KT 10SM FEW041 FEW048 24/22 A3000 RMK A01
KHZD 180955Z AUTO 04004KT 10SM FEW044 24/22 A2999 RMK A01
KHZD 180935Z AUTO 04003KT 10SM BKN044 24/22 A2999 RMK A01
KHZD 180915Z AUTO 00000KT 10SM SCT044 SCT050 24/22 A2999 RMK A01
KHZD 180855Z AUTO 06003KT 10SM BKN044 BKN050 24/22 A2999 RMK A01
KHZD 180835Z AUTO 05003KT 10SM SCT043 SCT050 24/22 A2999 RMK A01
KHZD 180815Z AUTO 05004KT 10SM FEW046 24/22 A2999 RMK A01
KHZD 180755Z AUTO 05005KT 10SM SCT043 SCT048 24/22 A2999 RMK A01
KHZD 180735Z AUTO 05005KT 10SM BKN043 25/22 A2999 RMK A01